sensor_id;sensor_type;location;lat;lon;timestamp;P1;durP1;ratioP1;P2;durP2;ratioP2
10399;SDS011;10031;51.180;17.168;2023-03-05T00:01:06;13.37;;;6.23;;
10399;SDS011;10031;51.180;17.168;2023-03-05T00:03:33;18.67;;;7.20;;
10399;SDS011;10031;51.180;17.168;2023-03-05T00:05:59;20.70;;;6.53;;
10399;SDS011;10031;51.180;17.168;2023-03-05T00:08:26;12.53;;;5.93;;
10399;SDS011;10031;51.180;17.168;2023-03-05T00:11:00;11.40;;;5.73;;
10399;SDS011;10031;51.180;17.168;2023-03-05T00:13:30;11.57;;;6.00;;
10399;SDS011;10031;51.180;17.168;2023-03-05T00:15:57;15.20;;;6.07;;
10399;SDS011;10031;51.180;17.168;2023-03-05T00:18:23;10.23;;;5.50;;
10399;SDS011;10031;51.180;17.168;2023-03-05T00:20:50;10.53;;;5.00;;
10399;SDS011;10031;51.180;17.168;2023-03-05T00:23:16;11.30;;;5.33;;
10399;SDS011;10031;51.180;17.168;2023-03-05T00:25:42;8.63;;;4.50;;
10399;SDS011;10031;51.180;17.168;2023-03-05T00:28:10;11.83;;;5.43;;
10399;SDS011;10031;51.180;17.168;2023-03-05T00:30:36;10.03;;;5.03;;
10399;SDS011;10031;51.180;17.168;2023-03-05T00:33:03;12.53;;;5.17;;
10399;SDS011;10031;51.180;17.168;2023-03-05T00:35:28;10.03;;;4.97;;
10399;SDS011;10031;51.180;17.168;2023-03-05T00:37:59;9.67;;;4.77;;
10399;SDS011;10031;51.180;17.168;2023-03-05T00:40:25;11.37;;;4.87;;
10399;SDS011;10031;51.180;17.168;2023-03-05T00:42:51;9.53;;;4.17;;
10399;SDS011;10031;51.180;17.168;2023-03-05T00:45:16;9.67;;;4.63;;
10399;SDS011;10031;51.180;17.168;2023-03-05T00:47:43;8.00;;;4.53;;
10399;SDS011;10031;51.180;17.168;2023-03-05T00:50:09;8.90;;;4.90;;
10399;SDS011;10031;51.180;17.168;2023-03-05T00:52:35;13.97;;;5.40;;
10399;SDS011;10031;51.180;17.168;2023-03-05T00:55:01;9.87;;;4.63;;
10399;SDS011;10031;51.180;17.168;2023-03-05T00:57:27;10.60;;;5.07;;
10399;SDS011;10031;51.180;17.168;2023-03-05T00:59:53;11.60;;;4.83;;
10399;SDS011;10031;51.180;17.168;2023-03-05T01:02:19;9.37;;;4.40;;
10399;SDS011;10031;51.180;17.168;2023-03-05T01:04:45;7.77;;;4.17;;
10399;SDS011;10031;51.180;17.168;2023-03-05T01:07:11;11.23;;;5.10;;
10399;SDS011;10031;51.180;17.168;2023-03-05T01:09:37;13.00;;;5.80;;
10399;SDS011;10031;51.180;17.168;2023-03-05T01:12:03;11.93;;;6.03;;
10399;SDS011;10031;51.180;17.168;2023-03-05T01:14:29;9.80;;;5.63;;
10399;SDS011;10031;51.180;17.168;2023-03-05T01:16:56;16.53;;;6.73;;
10399;SDS011;10031;51.180;17.168;2023-03-05T01:19:22;14.00;;;6.60;;
10399;SDS011;10031;51.180;17.168;2023-03-05T01:21:49;13.03;;;5.70;;
10399;SDS011;10031;51.180;17.168;2023-03-05T01:24:15;10.37;;;5.13;;
10399;SDS011;10031;51.180;17.168;2023-03-05T01:26:42;11.10;;;4.90;;
10399;SDS011;10031;51.180;17.168;2023-03-05T01:29:07;13.50;;;5.20;;
10399;SDS011;10031;51.180;17.168;2023-03-05T01:31:33;10.07;;;4.87;;
10399;SDS011;10031;51.180;17.168;2023-03-05T01:34:00;11.10;;;4.70;;
10399;SDS011;10031;51.180;17.168;2023-03-05T01:36:26;9.70;;;4.77;;
10399;SDS011;10031;51.180;17.168;2023-03-05T01:38:54;11.67;;;5.10;;
10399;SDS011;10031;51.180;17.168;2023-03-05T01:41:20;12.63;;;5.77;;
10399;SDS011;10031;51.180;17.168;2023-03-05T01:43:47;13.13;;;5.83;;
10399;SDS011;10031;51.180;17.168;2023-03-05T01:51:36;14.03;;;5.47;;
10399;SDS011;10031;51.180;17.168;2023-03-05T01:54:06;11.97;;;5.50;;
10399;SDS011;10031;51.180;17.168;2023-03-05T01:56:33;11.83;;;5.60;;
10399;SDS011;10031;51.180;17.168;2023-03-05T01:59:00;15.07;;;6.20;;
10399;SDS011;10031;51.180;17.168;2023-03-05T02:01:30;14.33;;;6.50;;
10399;SDS011;10031;51.180;17.168;2023-03-05T02:03:58;15.83;;;6.87;;
10399;SDS011;10031;51.180;17.168;2023-03-05T02:06:24;15.33;;;7.00;;
10399;SDS011;10031;51.180;17.168;2023-03-05T02:08:50;15.53;;;6.20;;
10399;SDS011;10031;51.180;17.168;2023-03-05T02:11:18;15.10;;;6.20;;
10399;SDS011;10031;51.180;17.168;2023-03-05T02:13:45;10.97;;;5.70;;
10399;SDS011;10031;51.180;17.168;2023-03-05T02:16:11;11.47;;;5.27;;
10399;SDS011;10031;51.180;17.168;2023-03-05T02:18:37;14.93;;;5.87;;
10399;SDS011;10031;51.180;17.168;2023-03-05T02:21:04;11.93;;;5.40;;
10399;SDS011;10031;51.180;17.168;2023-03-05T02:23:35;12.67;;;6.30;;
10399;SDS011;10031;51.180;17.168;2023-03-05T02:26:02;9.57;;;5.47;;
10399;SDS011;10031;51.180;17.168;2023-03-05T02:28:49;10.33;;;4.53;;
10399;SDS011;10031;51.180;17.168;2023-03-05T02:31:21;12.27;;;5.53;;
10399;SDS011;10031;51.180;17.168;2023-03-05T02:33:48;13.23;;;5.17;;
10399;SDS011;10031;51.180;17.168;2023-03-05T02:36:15;11.33;;;5.57;;
10399;SDS011;10031;51.180;17.168;2023-03-05T02:38:43;12.27;;;4.60;;
10399;SDS011;10031;51.180;17.168;2023-03-05T02:41:09;5.03;;;2.63;;
10399;SDS011;10031;51.180;17.168;2023-03-05T02:43:36;5.10;;;3.10;;
10399;SDS011;10031;51.180;17.168;2023-03-05T02:46:02;7.67;;;2.53;;
10399;SDS011;10031;51.180;17.168;2023-03-05T02:48:28;5.97;;;2.37;;
10399;SDS011;10031;51.180;17.168;2023-03-05T02:50:54;8.33;;;2.80;;
10399;SDS011;10031;51.180;17.168;2023-03-05T02:53:21;6.00;;;2.67;;
10399;SDS011;10031;51.180;17.168;2023-03-05T02:55:48;7.13;;;2.93;;
10399;SDS011;10031;51.180;17.168;2023-03-05T02:58:14;8.27;;;2.60;;
10399;SDS011;10031;51.180;17.168;2023-03-05T03:00:41;4.30;;;2.63;;
10399;SDS011;10031;51.180;17.168;2023-03-05T03:03:07;4.77;;;2.27;;
10399;SDS011;10031;51.180;17.168;2023-03-05T03:05:33;6.53;;;1.80;;
10399;SDS011;10031;51.180;17.168;2023-03-05T03:08:00;1.83;;;1.50;;
10399;SDS011;10031;51.180;17.168;2023-03-05T03:10:27;4.53;;;1.60;;
10399;SDS011;10031;51.180;17.168;2023-03-05T03:12:53;2.70;;;1.50;;
10399;SDS011;10031;51.180;17.168;2023-03-05T03:15:19;4.37;;;1.70;;
10399;SDS011;10031;51.180;17.168;2023-03-05T03:17:44;5.23;;;1.70;;
10399;SDS011;10031;51.180;17.168;2023-03-05T03:20:12;3.10;;;1.87;;
10399;SDS011;10031;51.180;17.168;2023-03-05T03:22:41;4.57;;;1.90;;
10399;SDS011;10031;51.180;17.168;2023-03-05T03:25:09;2.93;;;1.90;;
10399;SDS011;10031;51.180;17.168;2023-03-05T03:27:37;2.57;;;1.87;;
10399;SDS011;10031;51.180;17.168;2023-03-05T03:32:33;5.30;;;2.77;;
10399;SDS011;10031;51.180;17.168;2023-03-05T03:34:59;3.97;;;2.37;;
10399;SDS011;10031;51.180;17.168;2023-03-05T03:37:25;4.20;;;2.50;;
10399;SDS011;10031;51.180;17.168;2023-03-05T03:39:51;4.83;;;2.40;;
10399;SDS011;10031;51.180;17.168;2023-03-05T03:42:21;6.93;;;2.87;;
10399;SDS011;10031;51.180;17.168;2023-03-05T03:44:47;5.40;;;2.80;;
10399;SDS011;10031;51.180;17.168;2023-03-05T03:47:14;3.60;;;2.43;;
10399;SDS011;10031;51.180;17.168;2023-03-05T03:49:40;4.10;;;2.63;;
10399;SDS011;10031;51.180;17.168;2023-03-05T03:52:06;6.33;;;2.70;;
10399;SDS011;10031;51.180;17.168;2023-03-05T03:54:31;4.23;;;2.43;;
10399;SDS011;10031;51.180;17.168;2023-03-05T03:56:57;4.37;;;2.30;;
10399;SDS011;10031;51.180;17.168;2023-03-05T03:59:23;3.87;;;2.43;;
10399;SDS011;10031;51.180;17.168;2023-03-05T04:01:51;7.60;;;2.60;;
10399;SDS011;10031;51.180;17.168;2023-03-05T04:04:17;6.23;;;2.80;;
10399;SDS011;10031;51.180;17.168;2023-03-05T04:06:42;4.47;;;2.67;;
10399;SDS011;10031;51.180;17.168;2023-03-05T04:09:09;4.90;;;2.70;;
10399;SDS011;10031;51.180;17.168;2023-03-05T04:11:35;5.47;;;3.40;;
10399;SDS011;10031;51.180;17.168;2023-03-05T04:14:02;4.00;;;3.00;;
10399;SDS011;10031;51.180;17.168;2023-03-05T04:16:36;8.33;;;3.80;;
10399;SDS011;10031;51.180;17.168;2023-03-05T04:19:02;7.80;;;3.80;;
10399;SDS011;10031;51.180;17.168;2023-03-05T04:23:56;6.20;;;3.50;;
10399;SDS011;10031;51.180;17.168;2023-03-05T04:26:22;9.37;;;4.00;;
10399;SDS011;10031;51.180;17.168;2023-03-05T04:28:48;6.90;;;3.87;;
10399;SDS011;10031;51.180;17.168;2023-03-05T04:31:14;4.27;;;2.87;;
10399;SDS011;10031;51.180;17.168;2023-03-05T04:33:43;6.30;;;2.70;;
10399;SDS011;10031;51.180;17.168;2023-03-05T04:36:09;4.70;;;2.40;;
10399;SDS011;10031;51.180;17.168;2023-03-05T04:38:35;8.50;;;2.90;;
10399;SDS011;10031;51.180;17.168;2023-03-05T04:41:01;6.27;;;2.47;;
10399;SDS011;10031;51.180;17.168;2023-03-05T04:43:26;4.63;;;2.30;;
10399;SDS011;10031;51.180;17.168;2023-03-05T04:45:53;6.27;;;2.47;;
10399;SDS011;10031;51.180;17.168;2023-03-05T04:48:19;5.90;;;2.60;;
10399;SDS011;10031;51.180;17.168;2023-03-05T04:50:45;4.50;;;2.57;;
10399;SDS011;10031;51.180;17.168;2023-03-05T04:53:11;4.50;;;2.50;;
10399;SDS011;10031;51.180;17.168;2023-03-05T04:55:37;5.67;;;2.53;;
10399;SDS011;10031;51.180;17.168;2023-03-05T04:58:03;5.30;;;2.37;;
10399;SDS011;10031;51.180;17.168;2023-03-05T05:00:29;3.83;;;2.47;;
10399;SDS011;10031;51.180;17.168;2023-03-05T05:02:55;4.63;;;2.43;;
10399;SDS011;10031;51.180;17.168;2023-03-05T05:05:22;6.27;;;2.70;;
10399;SDS011;10031;51.180;17.168;2023-03-05T05:07:49;3.73;;;2.57;;
10399;SDS011;10031;51.180;17.168;2023-03-05T05:10:15;5.70;;;2.27;;
10399;SDS011;10031;51.180;17.168;2023-03-05T05:12:41;7.57;;;3.13;;
10399;SDS011;10031;51.180;17.168;2023-03-05T05:15:08;9.47;;;3.93;;
10399;SDS011;10031;51.180;17.168;2023-03-05T05:17:35;7.20;;;3.37;;
10399;SDS011;10031;51.180;17.168;2023-03-05T05:20:17;5.83;;;3.20;;
10399;SDS011;10031;51.180;17.168;2023-03-05T05:22:43;8.27;;;2.67;;
10399;SDS011;10031;51.180;17.168;2023-03-05T05:25:12;5.27;;;2.27;;
10399;SDS011;10031;51.180;17.168;2023-03-05T05:27:38;4.97;;;2.73;;
10399;SDS011;10031;51.180;17.168;2023-03-05T05:30:05;4.73;;;2.80;;
10399;SDS011;10031;51.180;17.168;2023-03-05T05:32:32;6.30;;;3.00;;
10399;SDS011;10031;51.180;17.168;2023-03-05T05:34:58;7.53;;;3.00;;
10399;SDS011;10031;51.180;17.168;2023-03-05T05:37:24;5.63;;;2.87;;
10399;SDS011;10031;51.180;17.168;2023-03-05T05:39:51;6.80;;;2.67;;
10399;SDS011;10031;51.180;17.168;2023-03-05T05:42:17;5.27;;;3.03;;
10399;SDS011;10031;51.180;17.168;2023-03-05T05:44:46;6.03;;;3.47;;
10399;SDS011;10031;51.180;17.168;2023-03-05T05:47:13;5.83;;;3.00;;
10399;SDS011;10031;51.180;17.168;2023-03-05T05:49:39;6.03;;;2.63;;
10399;SDS011;10031;51.180;17.168;2023-03-05T05:52:09;7.30;;;3.47;;
10399;SDS011;10031;51.180;17.168;2023-03-05T05:54:37;7.43;;;3.63;;
10399;SDS011;10031;51.180;17.168;2023-03-05T05:57:04;8.77;;;4.50;;
10399;SDS011;10031;51.180;17.168;2023-03-05T05:59:30;8.20;;;4.30;;
10399;SDS011;10031;51.180;17.168;2023-03-05T06:01:56;15.87;;;7.10;;
10399;SDS011;10031;51.180;17.168;2023-03-05T06:04:24;12.40;;;6.80;;
10399;SDS011;10031;51.180;17.168;2023-03-05T06:06:50;11.73;;;5.43;;
10399;SDS011;10031;51.180;17.168;2023-03-05T06:09:16;12.13;;;5.43;;
10399;SDS011;10031;51.180;17.168;2023-03-05T06:11:42;9.80;;;5.27;;
10399;SDS011;10031;51.180;17.168;2023-03-05T06:14:09;14.43;;;6.50;;
10399;SDS011;10031;51.180;17.168;2023-03-05T06:16:36;13.60;;;7.00;;
10399;SDS011;10031;51.180;17.168;2023-03-05T06:19:02;13.97;;;7.10;;
10399;SDS011;10031;51.180;17.168;2023-03-05T06:21:28;13.27;;;7.07;;
10399;SDS011;10031;51.180;17.168;2023-03-05T06:23:55;14.17;;;6.33;;
10399;SDS011;10031;51.180;17.168;2023-03-05T06:26:23;11.97;;;5.43;;
10399;SDS011;10031;51.180;17.168;2023-03-05T06:28:49;8.93;;;4.60;;
10399;SDS011;10031;51.180;17.168;2023-03-05T06:31:17;10.83;;;4.33;;
10399;SDS011;10031;51.180;17.168;2023-03-05T06:33:50;5.90;;;3.90;;
10399;SDS011;10031;51.180;17.168;2023-03-05T06:36:17;9.30;;;4.40;;
10399;SDS011;10031;51.180;17.168;2023-03-05T06:38:44;7.63;;;4.00;;
10399;SDS011;10031;51.180;17.168;2023-03-05T06:41:11;8.03;;;4.27;;
10399;SDS011;10031;51.180;17.168;2023-03-05T06:43:40;9.87;;;5.33;;
10399;SDS011;10031;51.180;17.168;2023-03-05T06:48:40;14.93;;;6.33;;
10399;SDS011;10031;51.180;17.168;2023-03-05T06:53:58;15.87;;;7.00;;
10399;SDS011;10031;51.180;17.168;2023-03-05T06:59:16;17.43;;;6.83;;
10399;SDS011;10031;51.180;17.168;2023-03-05T07:01:43;15.60;;;6.43;;
10399;SDS011;10031;51.180;17.168;2023-03-05T07:04:09;17.63;;;6.93;;
10399;SDS011;10031;51.180;17.168;2023-03-05T07:06:38;16.63;;;6.60;;
10399;SDS011;10031;51.180;17.168;2023-03-05T07:09:09;17.50;;;6.67;;
10399;SDS011;10031;51.180;17.168;2023-03-05T07:11:37;11.50;;;5.13;;
10399;SDS011;10031;51.180;17.168;2023-03-05T07:14:07;16.17;;;6.83;;
10399;SDS011;10031;51.180;17.168;2023-03-05T07:16:41;19.63;;;7.07;;
10399;SDS011;10031;51.180;17.168;2023-03-05T07:19:09;16.57;;;6.77;;
10399;SDS011;10031;51.180;17.168;2023-03-05T07:21:36;18.80;;;7.33;;
10399;SDS011;10031;51.180;17.168;2023-03-05T07:24:03;19.80;;;7.73;;
10399;SDS011;10031;51.180;17.168;2023-03-05T07:26:30;14.50;;;5.77;;
10399;SDS011;10031;51.180;17.168;2023-03-05T07:28:57;15.03;;;6.23;;
10399;SDS011;10031;51.180;17.168;2023-03-05T07:31:24;15.53;;;6.70;;
10399;SDS011;10031;51.180;17.168;2023-03-05T07:34:13;18.33;;;7.13;;
10399;SDS011;10031;51.180;17.168;2023-03-05T07:36:41;20.03;;;7.30;;
10399;SDS011;10031;51.180;17.168;2023-03-05T07:39:07;14.80;;;7.33;;
10399;SDS011;10031;51.180;17.168;2023-03-05T07:41:34;18.80;;;6.53;;
10399;SDS011;10031;51.180;17.168;2023-03-05T07:44:06;17.83;;;6.60;;
10399;SDS011;10031;51.180;17.168;2023-03-05T07:46:34;12.13;;;4.93;;
10399;SDS011;10031;51.180;17.168;2023-03-05T07:49:00;14.60;;;6.27;;
10399;SDS011;10031;51.180;17.168;2023-03-05T07:51:29;15.20;;;5.83;;
10399;SDS011;10031;51.180;17.168;2023-03-05T07:53:56;10.97;;;4.83;;
10399;SDS011;10031;51.180;17.168;2023-03-05T07:56:23;19.23;;;6.63;;
10399;SDS011;10031;51.180;17.168;2023-03-05T07:58:51;8.57;;;3.90;;
10399;SDS011;10031;51.180;17.168;2023-03-05T08:01:17;8.60;;;4.00;;
10399;SDS011;10031;51.180;17.168;2023-03-05T08:03:43;10.87;;;4.17;;
10399;SDS011;10031;51.180;17.168;2023-03-05T08:06:10;12.17;;;2.57;;
10399;SDS011;10031;51.180;17.168;2023-03-05T08:08:36;9.40;;;3.37;;
10399;SDS011;10031;51.180;17.168;2023-03-05T08:11:06;5.97;;;2.47;;
10399;SDS011;10031;51.180;17.168;2023-03-05T08:13:34;11.37;;;3.83;;
10399;SDS011;10031;51.180;17.168;2023-03-05T08:16:04;11.70;;;4.53;;
10399;SDS011;10031;51.180;17.168;2023-03-05T08:18:31;7.40;;;1.73;;
10399;SDS011;10031;51.180;17.168;2023-03-05T08:20:57;10.10;;;3.30;;
10399;SDS011;10031;51.180;17.168;2023-03-05T08:23:24;12.13;;;3.20;;
10399;SDS011;10031;51.180;17.168;2023-03-05T08:25:50;7.63;;;2.37;;
10399;SDS011;10031;51.180;17.168;2023-03-05T08:28:16;7.20;;;3.27;;
10399;SDS011;10031;51.180;17.168;2023-03-05T08:30:44;6.57;;;2.00;;
10399;SDS011;10031;51.180;17.168;2023-03-05T08:33:10;3.50;;;1.83;;
10399;SDS011;10031;51.180;17.168;2023-03-05T08:35:36;3.53;;;1.60;;
10399;SDS011;10031;51.180;17.168;2023-03-05T08:38:03;2.33;;;1.23;;
10399;SDS011;10031;51.180;17.168;2023-03-05T08:40:29;5.27;;;1.60;;
10399;SDS011;10031;51.180;17.168;2023-03-05T08:42:56;9.13;;;2.60;;
10399;SDS011;10031;51.180;17.168;2023-03-05T08:45:22;4.33;;;1.67;;
10399;SDS011;10031;51.180;17.168;2023-03-05T08:47:48;4.33;;;1.97;;
10399;SDS011;10031;51.180;17.168;2023-03-05T08:50:14;4.23;;;1.50;;
10399;SDS011;10031;51.180;17.168;2023-03-05T08:52:41;6.40;;;2.03;;
10399;SDS011;10031;51.180;17.168;2023-03-05T08:55:08;8.23;;;2.10;;
10399;SDS011;10031;51.180;17.168;2023-03-05T08:57:35;7.07;;;1.80;;
10399;SDS011;10031;51.180;17.168;2023-03-05T09:00:01;6.57;;;2.03;;
10399;SDS011;10031;51.180;17.168;2023-03-05T09:02:27;3.87;;;1.57;;
10399;SDS011;10031;51.180;17.168;2023-03-05T09:04:54;4.30;;;2.20;;
10399;SDS011;10031;51.180;17.168;2023-03-05T09:07:20;4.10;;;1.80;;
10399;SDS011;10031;51.180;17.168;2023-03-05T09:09:46;6.20;;;2.37;;
10399;SDS011;10031;51.180;17.168;2023-03-05T09:12:19;2.67;;;1.27;;
10399;SDS011;10031;51.180;17.168;2023-03-05T09:14:45;3.90;;;1.70;;
10399;SDS011;10031;51.180;17.168;2023-03-05T09:17:11;6.53;;;1.23;;
10399;SDS011;10031;51.180;17.168;2023-03-05T09:19:36;5.40;;;1.87;;
10399;SDS011;10031;51.180;17.168;2023-03-05T09:22:03;6.00;;;1.87;;
10399;SDS011;10031;51.180;17.168;2023-03-05T09:24:30;7.23;;;1.90;;
10399;SDS011;10031;51.180;17.168;2023-03-05T09:26:58;7.07;;;2.50;;
10399;SDS011;10031;51.180;17.168;2023-03-05T09:29:25;7.97;;;1.90;;
10399;SDS011;10031;51.180;17.168;2023-03-05T09:31:51;8.03;;;3.10;;
10399;SDS011;10031;51.180;17.168;2023-03-05T09:34:17;9.20;;;2.70;;
10399;SDS011;10031;51.180;17.168;2023-03-05T09:36:44;7.20;;;3.10;;
10399;SDS011;10031;51.180;17.168;2023-03-05T09:39:12;7.73;;;4.00;;
10399;SDS011;10031;51.180;17.168;2023-03-05T09:47:23;10.53;;;4.50;;
10399;SDS011;10031;51.180;17.168;2023-03-05T09:52:34;7.43;;;3.33;;
10399;SDS011;10031;51.180;17.168;2023-03-05T09:55:04;9.27;;;4.87;;
10399;SDS011;10031;51.180;17.168;2023-03-05T09:57:42;8.07;;;3.53;;
10399;SDS011;10031;51.180;17.168;2023-03-05T10:02:55;9.50;;;4.90;;
10399;SDS011;10031;51.180;17.168;2023-03-05T10:05:25;8.87;;;3.73;;
10399;SDS011;10031;51.180;17.168;2023-03-05T10:08:02;5.53;;;3.37;;
10399;SDS011;10031;51.180;17.168;2023-03-05T10:10:41;9.77;;;4.57;;
10399;SDS011;10031;51.180;17.168;2023-03-05T10:13:32;7.97;;;4.60;;
10399;SDS011;10031;51.180;17.168;2023-03-05T10:19:32;10.63;;;3.17;;
10399;SDS011;10031;51.180;17.168;2023-03-05T10:33:24;7.07;;;3.40;;
10399;SDS011;10031;51.180;17.168;2023-03-05T10:44:32;3.53;;;1.63;;
10399;SDS011;10031;51.180;17.168;2023-03-05T10:47:23;4.03;;;2.03;;
10399;SDS011;10031;51.180;17.168;2023-03-05T10:49:55;4.17;;;2.20;;
10399;SDS011;10031;51.180;17.168;2023-03-05T10:52:32;6.37;;;2.30;;
10399;SDS011;10031;51.180;17.168;2023-03-05T10:55:10;4.23;;;2.27;;
10399;SDS011;10031;51.180;17.168;2023-03-05T10:57:39;5.03;;;2.03;;
10399;SDS011;10031;51.180;17.168;2023-03-05T11:02:31;7.77;;;2.10;;
10399;SDS011;10031;51.180;17.168;2023-03-05T11:04:57;6.37;;;2.53;;
10399;SDS011;10031;51.180;17.168;2023-03-05T11:12:40;6.60;;;2.30;;
10399;SDS011;10031;51.180;17.168;2023-03-05T11:17:42;8.20;;;2.50;;
10399;SDS011;10031;51.180;17.168;2023-03-05T11:25:50;7.27;;;3.50;;
10399;SDS011;10031;51.180;17.168;2023-03-05T11:28:20;5.00;;;2.77;;
10399;SDS011;10031;51.180;17.168;2023-03-05T11:30:58;2.93;;;2.30;;
10399;SDS011;10031;51.180;17.168;2023-03-05T11:33:25;4.97;;;2.47;;
10399;SDS011;10031;51.180;17.168;2023-03-05T11:35:53;6.90;;;2.50;;
10399;SDS011;10031;51.180;17.168;2023-03-05T11:38:46;4.77;;;2.47;;
10399;SDS011;10031;51.180;17.168;2023-03-05T11:41:18;11.03;;;3.70;;
10399;SDS011;10031;51.180;17.168;2023-03-05T11:43:49;14.10;;;4.80;;
10399;SDS011;10031;51.180;17.168;2023-03-05T11:46:17;8.97;;;4.23;;
10399;SDS011;10031;51.180;17.168;2023-03-05T11:48:43;7.17;;;2.90;;
10399;SDS011;10031;51.180;17.168;2023-03-05T11:51:21;3.83;;;1.97;;
10399;SDS011;10031;51.180;17.168;2023-03-05T11:53:54;7.80;;;2.20;;
10399;SDS011;10031;51.180;17.168;2023-03-05T11:56:24;3.63;;;2.30;;
10399;SDS011;10031;51.180;17.168;2023-03-05T11:59:10;4.97;;;2.07;;
10399;SDS011;10031;51.180;17.168;2023-03-05T12:01:48;7.13;;;3.30;;
10399;SDS011;10031;51.180;17.168;2023-03-05T12:04:17;3.07;;;1.93;;
10399;SDS011;10031;51.180;17.168;2023-03-05T12:06:49;5.40;;;2.57;;
10399;SDS011;10031;51.180;17.168;2023-03-05T12:11:48;5.93;;;2.43;;
10399;SDS011;10031;51.180;17.168;2023-03-05T12:14:24;5.73;;;2.80;;
10399;SDS011;10031;51.180;17.168;2023-03-05T12:17:13;6.07;;;2.70;;
10399;SDS011;10031;51.180;17.168;2023-03-05T12:22:38;7.20;;;2.87;;
10399;SDS011;10031;51.180;17.168;2023-03-05T12:27:53;7.50;;;3.67;;
10399;SDS011;10031;51.180;17.168;2023-03-05T12:30:51;10.67;;;5.53;;
10399;SDS011;10031;51.180;17.168;2023-03-05T12:33:29;10.40;;;5.40;;
10399;SDS011;10031;51.180;17.168;2023-03-05T12:38:52;7.70;;;4.40;;
10399;SDS011;10031;51.180;17.168;2023-03-05T12:46:34;9.17;;;3.83;;
10399;SDS011;10031;51.180;17.168;2023-03-05T12:51:54;6.50;;;3.33;;
10399;SDS011;10031;51.180;17.168;2023-03-05T12:54:34;5.50;;;3.03;;
10399;SDS011;10031;51.180;17.168;2023-03-05T12:57:13;4.40;;;3.37;;
10399;SDS011;10031;51.180;17.168;2023-03-05T13:02:33;4.83;;;3.00;;
10399;SDS011;10031;51.180;17.168;2023-03-05T13:08:10;9.77;;;4.03;;
10399;SDS011;10031;51.180;17.168;2023-03-05T13:10:37;6.47;;;2.70;;
10399;SDS011;10031;51.180;17.168;2023-03-05T13:13:04;6.70;;;3.70;;
10399;SDS011;10031;51.180;17.168;2023-03-05T13:15:30;6.57;;;3.47;;
10399;SDS011;10031;51.180;17.168;2023-03-05T13:17:57;6.60;;;3.93;;
10399;SDS011;10031;51.180;17.168;2023-03-05T13:23:03;8.20;;;3.80;;
10399;SDS011;10031;51.180;17.168;2023-03-05T13:25:35;8.03;;;2.53;;
10399;SDS011;10031;51.180;17.168;2023-03-05T13:28:09;8.53;;;3.77;;
10399;SDS011;10031;51.180;17.168;2023-03-05T13:30:49;5.83;;;3.63;;
10399;SDS011;10031;51.180;17.168;2023-03-05T13:33:28;6.73;;;3.80;;
10399;SDS011;10031;51.180;17.168;2023-03-05T13:35:56;7.10;;;4.53;;
10399;SDS011;10031;51.180;17.168;2023-03-05T13:43:55;4.07;;;2.33;;
10399;SDS011;10031;51.180;17.168;2023-03-05T13:46:33;3.27;;;2.17;;
10399;SDS011;10031;51.180;17.168;2023-03-05T13:49:16;3.90;;;2.00;;
10399;SDS011;10031;51.180;17.168;2023-03-05T13:51:44;2.70;;;1.73;;
10399;SDS011;10031;51.180;17.168;2023-03-05T13:54:13;4.10;;;1.53;;
10399;SDS011;10031;51.180;17.168;2023-03-05T13:56:57;6.27;;;2.03;;
10399;SDS011;10031;51.180;17.168;2023-03-05T13:59:29;2.07;;;1.20;;
10399;SDS011;10031;51.180;17.168;2023-03-05T14:02:02;3.30;;;1.77;;
10399;SDS011;10031;51.180;17.168;2023-03-05T14:04:50;2.93;;;1.50;;
10399;SDS011;10031;51.180;17.168;2023-03-05T14:13:16;2.60;;;1.73;;
10399;SDS011;10031;51.180;17.168;2023-03-05T14:16:09;4.73;;;2.17;;
10399;SDS011;10031;51.180;17.168;2023-03-05T14:18:35;15.23;;;5.97;;
10399;SDS011;10031;51.180;17.168;2023-03-05T14:21:05;8.57;;;2.93;;
10399;SDS011;10031;51.180;17.168;2023-03-05T14:23:41;7.37;;;4.00;;
10399;SDS011;10031;51.180;17.168;2023-03-05T14:29:02;6.53;;;3.60;;
10399;SDS011;10031;51.180;17.168;2023-03-05T14:31:43;9.53;;;5.23;;
10399;SDS011;10031;51.180;17.168;2023-03-05T14:36:58;7.37;;;3.10;;
10399;SDS011;10031;51.180;17.168;2023-03-05T14:45:15;8.30;;;3.40;;
10399;SDS011;10031;51.180;17.168;2023-03-05T14:47:43;9.17;;;3.90;;
10399;SDS011;10031;51.180;17.168;2023-03-05T14:50:13;6.00;;;3.77;;
10399;SDS011;10031;51.180;17.168;2023-03-05T14:52:41;6.90;;;3.50;;
10399;SDS011;10031;51.180;17.168;2023-03-05T14:55:12;8.70;;;4.20;;
10399;SDS011;10031;51.180;17.168;2023-03-05T14:57:45;10.77;;;4.00;;
10399;SDS011;10031;51.180;17.168;2023-03-05T15:00:23;7.63;;;3.37;;
10399;SDS011;10031;51.180;17.168;2023-03-05T15:02:50;7.50;;;4.17;;
10399;SDS011;10031;51.180;17.168;2023-03-05T15:05:17;8.70;;;3.60;;
10399;SDS011;10031;51.180;17.168;2023-03-05T15:07:44;11.80;;;4.60;;
10399;SDS011;10031;51.180;17.168;2023-03-05T15:10:17;11.27;;;5.10;;
10399;SDS011;10031;51.180;17.168;2023-03-05T15:12:48;11.83;;;5.73;;
10399;SDS011;10031;51.180;17.168;2023-03-05T15:15:17;7.83;;;4.60;;
10399;SDS011;10031;51.180;17.168;2023-03-05T15:17:45;12.60;;;5.90;;
10399;SDS011;10031;51.180;17.168;2023-03-05T15:20:16;8.40;;;3.70;;
10399;SDS011;10031;51.180;17.168;2023-03-05T15:22:45;5.33;;;3.27;;
10399;SDS011;10031;51.180;17.168;2023-03-05T15:25:11;9.07;;;4.60;;
10399;SDS011;10031;51.180;17.168;2023-03-05T15:27:38;5.80;;;2.47;;
10399;SDS011;10031;51.180;17.168;2023-03-05T15:30:26;4.40;;;2.87;;
10399;SDS011;10031;51.180;17.168;2023-03-05T15:32:55;7.10;;;2.90;;
10399;SDS011;10031;51.180;17.168;2023-03-05T15:35:22;7.90;;;3.60;;
10399;SDS011;10031;51.180;17.168;2023-03-05T15:37:50;4.53;;;2.07;;
10399;SDS011;10031;51.180;17.168;2023-03-05T15:40:19;8.93;;;3.23;;
10399;SDS011;10031;51.180;17.168;2023-03-05T15:42:46;5.93;;;2.57;;
10399;SDS011;10031;51.180;17.168;2023-03-05T15:45:13;6.50;;;2.63;;
10399;SDS011;10031;51.180;17.168;2023-03-05T15:47:39;7.33;;;3.47;;
10399;SDS011;10031;51.180;17.168;2023-03-05T15:50:06;8.40;;;3.10;;
10399;SDS011;10031;51.180;17.168;2023-03-05T15:52:33;8.90;;;3.70;;
10399;SDS011;10031;51.180;17.168;2023-03-05T15:55:00;13.90;;;6.40;;
10399;SDS011;10031;51.180;17.168;2023-03-05T15:57:26;23.53;;;8.93;;
10399;SDS011;10031;51.180;17.168;2023-03-05T15:59:52;7.13;;;3.13;;
10399;SDS011;10031;51.180;17.168;2023-03-05T16:02:19;8.00;;;3.73;;
10399;SDS011;10031;51.180;17.168;2023-03-05T16:04:50;13.93;;;5.73;;
10399;SDS011;10031;51.180;17.168;2023-03-05T16:07:17;6.60;;;4.17;;
10399;SDS011;10031;51.180;17.168;2023-03-05T16:09:47;17.47;;;9.23;;
10399;SDS011;10031;51.180;17.168;2023-03-05T16:12:17;19.27;;;8.97;;
10399;SDS011;10031;51.180;17.168;2023-03-05T16:14:49;20.20;;;11.97;;
10399;SDS011;10031;51.180;17.168;2023-03-05T16:17:15;31.60;;;17.03;;
10399;SDS011;10031;51.180;17.168;2023-03-05T16:19:44;17.47;;;7.60;;
10399;SDS011;10031;51.180;17.168;2023-03-05T16:22:14;22.10;;;12.23;;
10399;SDS011;10031;51.180;17.168;2023-03-05T16:24:40;11.70;;;6.50;;
10399;SDS011;10031;51.180;17.168;2023-03-05T16:27:06;11.87;;;5.13;;
10399;SDS011;10031;51.180;17.168;2023-03-05T16:29:32;10.13;;;4.40;;
10399;SDS011;10031;51.180;17.168;2023-03-05T16:32:00;6.63;;;3.20;;
10399;SDS011;10031;51.180;17.168;2023-03-05T16:34:29;8.20;;;4.97;;
10399;SDS011;10031;51.180;17.168;2023-03-05T16:36:58;6.77;;;3.80;;
10399;SDS011;10031;51.180;17.168;2023-03-05T16:39:25;7.23;;;3.73;;